createdAt,value
2023-03-10T00:03:03.872Z,21.6
2023-03-10T00:08:43.388Z,21.6
2023-03-10T00:14:35.438Z,21.6
2023-03-10T00:20:28.774Z,21.6
2023-03-10T00:26:05.990Z,21.6
2023-03-10T00:31:59.891Z,21.6
2023-03-10T00:37:38.213Z,21.6
2023-03-10T00:43:32.229Z,21.6
2023-03-10T00:49:09.548Z,21.6
2023-03-10T00:54:46.292Z,21.6
2023-03-10T01:00:38.949Z,21.6
2023-03-10T01:06:33.160Z,21.6
2023-03-10T01:12:25.994Z,21.6
2023-03-10T01:18:19.380Z,21.6
2023-03-10T01:23:56.762Z,21.6
2023-03-10T01:29:33.737Z,21.6
2023-03-10T01:35:12.238Z,21.5
2023-03-10T01:40:35.784Z,21.6
2023-03-10T01:46:28.319Z,21.6
2023-03-10T01:52:21.364Z,21.6
2023-03-10T01:58:14.283Z,21.5
2023-03-10T02:04:07.712Z,21.5
2023-03-10T02:09:18.128Z,21.5
2023-03-10T02:14:56.026Z,21.6
2023-03-10T02:20:33.759Z,21.7
2023-03-10T02:26:35.621Z,21.8
2023-03-10T02:32:39.792Z,21.9
2023-03-10T02:38:17.108Z,21.9
2023-03-10T02:43:54.644Z,22
2023-03-10T02:49:17.583Z,22
2023-03-10T02:54:54.641Z,22.1
2023-03-10T03:00:47.514Z,22.2
2023-03-10T03:06:24.976Z,22.3
2023-03-10T03:11:46.146Z,22.3
2023-03-10T03:17:25.956Z,22.3
2023-03-10T03:23:19.036Z,22.3
2023-03-10T03:28:40.147Z,22.3
2023-03-10T03:34:37.068Z,22.4
2023-03-10T03:40:14.973Z,22.4
2023-03-10T03:46:07.342Z,22.4
2023-03-10T03:52:03.962Z,22.4
2023-03-10T03:57:56.517Z,22.4
2023-03-10T04:03:33.938Z,22.4
2023-03-10T04:09:11.815Z,22.4
2023-03-10T04:15:03.917Z,22.4
2023-03-10T04:21:12.544Z,22.4
2023-03-10T04:26:35.423Z,22.4
2023-03-10T04:32:21.907Z,22.5
2023-03-10T04:38:15.180Z,22.4
2023-03-10T04:43:52.316Z,22.5
2023-03-10T04:49:40.697Z,22.4
2023-03-10T04:55:17.061Z,22.4
2023-03-10T05:01:03.077Z,22.4
2023-03-10T05:06:59.167Z,22.4
2023-03-10T05:12:50.949Z,22.5
2023-03-10T05:18:43.606Z,22.5
2023-03-10T05:24:21.123Z,22.5
2023-03-10T05:29:44.255Z,22.5
2023-03-10T05:35:21.580Z,22.5
2023-03-10T05:40:58.530Z,22.5
2023-03-10T05:46:51.491Z,22.5
2023-03-10T05:52:47.216Z,22.5
2023-03-10T05:58:24.598Z,22.4
2023-03-10T06:04:01.831Z,22.4
2023-03-10T06:09:58.769Z,22.4
2023-03-10T06:15:51.702Z,22.4
2023-03-10T06:21:45.946Z,22.4
2023-03-10T06:27:38.551Z,22.4
2023-03-10T06:33:31.655Z,22.4
2023-03-10T06:39:08.596Z,22.3
2023-03-10T06:44:49.232Z,22.3
2023-03-10T06:50:26.634Z,22.3
2023-03-10T06:56:04.033Z,22.3
2023-03-10T07:01:25.982Z,22.3
2023-03-10T07:07:04.155Z,22.3
2023-03-10T07:12:43.172Z,22.3
2023-03-10T07:18:37.382Z,22.3
2023-03-10T07:24:15.119Z,22.3
2023-03-10T07:30:08.589Z,22.3
2023-03-10T07:36:02.018Z,22.3
2023-03-10T07:41:55.468Z,22.3
2023-03-10T07:47:48.821Z,22.3
2023-03-10T07:53:26.197Z,22.2
2023-03-10T07:59:03.962Z,22.3
2023-03-10T08:04:57.784Z,22.2
2023-03-10T08:10:51.017Z,22.3
2023-03-10T08:16:45.128Z,22.2
2023-03-10T08:22:22.965Z,22.2
2023-03-10T08:27:45.640Z,22.2
2023-03-10T08:33:58.125Z,22.2
2023-03-10T08:39:41.378Z,22.2
2023-03-10T08:45:41.777Z,22.2
2023-03-10T08:51:20.118Z,22.2
2023-03-10T08:57:00.865Z,22.2
2023-03-10T09:02:55.430Z,22.2
2023-03-10T09:08:50.987Z,22.2
2023-03-10T09:14:58.116Z,22.2
2023-03-10T09:20:54.021Z,22.2
2023-03-10T09:26:47.816Z,22.1
2023-03-10T09:32:53.616Z,22.2
2023-03-10T09:38:43.698Z,22.2
2023-03-10T09:44:54.042Z,22.2
2023-03-10T09:50:46.180Z,22.1
2023-03-10T09:56:49.096Z,22.2
2023-03-10T10:02:41.831Z,22.2
2023-03-10T10:08:51.894Z,22.1
2023-03-10T10:15:13.222Z,22.1
2023-03-10T10:21:53.233Z,22.1
2023-03-10T10:27:47.534Z,22.1
2023-03-10T10:33:42.744Z,22.1
2023-03-10T10:39:44.627Z,22.1
2023-03-10T10:45:22.896Z,22.1
2023-03-10T10:51:01.449Z,22.1
2023-03-10T10:56:54.296Z,22.1
2023-03-10T11:02:47.833Z,22.1
2023-03-10T11:08:41.436Z,22.1
2023-03-10T11:14:19.211Z,22.1
2023-03-10T11:19:58.386Z,22.1
2023-03-10T11:25:51.232Z,22.1
2023-03-10T11:31:44.484Z,22.1
2023-03-10T11:37:45.449Z,22.1
2023-03-10T11:43:23.758Z,22
2023-03-10T11:49:15.517Z,22.1
2023-03-10T11:55:07.275Z,22.1
2023-03-10T12:01:01.119Z,22
2023-03-10T12:06:55.141Z,22.1
2023-03-10T12:12:32.891Z,22
2023-03-10T12:18:27.350Z,22
2023-03-10T12:24:19.288Z,22
2023-03-10T12:30:10.754Z,22
2023-03-10T12:36:05.124Z,22
2023-03-10T12:41:43.049Z,22
2023-03-10T12:47:37.103Z,22
2023-03-10T12:53:30.796Z,22
2023-03-10T12:59:24.595Z,22
2023-03-10T13:05:09.353Z,22
2023-03-10T13:10:46.545Z,22
2023-03-10T13:16:25.007Z,22
2023-03-10T13:22:17.803Z,22
2023-03-10T13:27:41.642Z,22
2023-03-10T13:33:20.167Z,22
2023-03-10T13:39:10.991Z,22
2023-03-10T13:45:01.681Z,22
2023-03-10T13:50:54.131Z,22
2023-03-10T13:56:45.691Z,21.9
2023-03-10T14:02:38.196Z,21.9
2023-03-10T14:08:34.738Z,21.9
2023-03-10T14:14:28.546Z,21.9
2023-03-10T14:19:50.511Z,21.9
2023-03-10T14:25:43.284Z,21.9
2023-03-10T14:30:35.657Z,21.9
2023-03-10T14:36:17.526Z,21.9
2023-03-10T14:42:10.647Z,21.9
2023-03-10T14:48:05.478Z,21.9
2023-03-10T14:54:10.057Z,21.9
2023-03-10T15:00:03.448Z,21.9
2023-03-10T15:06:05.360Z,21.9
2023-03-10T15:12:09.371Z,21.9
2023-03-10T15:18:02.946Z,21.9
2023-03-10T15:23:39.830Z,21.8
2023-03-10T15:29:32.096Z,21.8
2023-03-10T15:35:27.488Z,21.8
2023-03-10T15:41:33.168Z,21.8
2023-03-10T15:47:27.341Z,21.8
2023-03-10T15:53:20.371Z,21.8
2023-03-10T15:59:12.284Z,21.8
2023-03-10T16:05:05.245Z,21.8
2023-03-10T16:10:58.590Z,21.8
2023-03-10T16:16:52.131Z,21.8
2023-03-10T16:22:29.155Z,21.8
2023-03-10T16:28:07.920Z,21.8
2023-03-10T16:34:00.596Z,21.8
2023-03-10T16:39:53.405Z,21.8
2023-03-10T16:45:47.253Z,21.8
2023-03-10T16:50:36.874Z,21.7
2023-03-10T16:55:42.728Z,21.7
2023-03-10T17:01:21.190Z,21.8
2023-03-10T17:07:00.668Z,21.7
2023-03-10T17:13:03.027Z,21.7
2023-03-10T17:18:56.905Z,21.7
2023-03-10T17:24:34.073Z,21.7
2023-03-10T17:30:29.211Z,21.7
2023-03-10T17:36:23.160Z,21.7
2023-03-10T17:42:14.821Z,21.7
2023-03-10T17:48:21.695Z,21.7
2023-03-10T17:54:15.485Z,21.7
2023-03-10T17:59:52.170Z,21.7
2023-03-10T18:05:48.430Z,21.7
2023-03-10T18:11:41.207Z,21.7
2023-03-10T18:17:32.541Z,21.7
2023-03-10T18:23:25.234Z,21.7
2023-03-10T18:29:03.098Z,21.6
2023-03-10T18:34:55.690Z,21.6
2023-03-10T18:40:49.555Z,21.6
2023-03-10T18:46:42.473Z,21.6
2023-03-10T18:52:18.792Z,21.6
2023-03-10T18:58:11.428Z,21.6
2023-03-10T19:03:49.875Z,21.6
2023-03-10T19:09:43.254Z,21.6
2023-03-10T19:15:36.006Z,21.6
2023-03-10T19:21:29.748Z,21.6
2023-03-10T19:27:23.087Z,21.6
2023-03-10T19:33:15.836Z,21.6
2023-03-10T19:38:54.846Z,21.6
2023-03-10T19:44:15.759Z,21.6
2023-03-10T19:50:08.954Z,21.6
2023-03-10T19:56:02.724Z,21.6
2023-03-10T20:01:40.183Z,21.6
2023-03-10T20:07:03.424Z,21.6
2023-03-10T20:12:56.519Z,21.6
2023-03-10T20:18:48.186Z,21.5
2023-03-10T20:24:24.942Z,21.6
2023-03-10T20:30:02.939Z,21.5
2023-03-10T20:35:39.793Z,21.5
2023-03-10T20:41:33.329Z,21.6
2023-03-10T20:47:12.111Z,21.8
2023-03-10T20:53:04.267Z,21.8
2023-03-10T20:58:57.381Z,21.9
2023-03-10T21:04:51.521Z,21.9
2023-03-10T21:10:28.022Z,22
2023-03-10T21:16:05.759Z,22.1
2023-03-10T21:21:59.903Z,22.1
2023-03-10T21:26:51.780Z,22.1
2023-03-10T21:32:44.823Z,22.1
2023-03-10T21:38:37.788Z,22.1
2023-03-10T21:44:30.194Z,22.1
2023-03-10T21:50:23.106Z,22
2023-03-10T21:56:17.306Z,21.8
2023-03-10T22:01:53.012Z,21.7
2023-03-10T22:07:30.530Z,21.6
2023-03-10T22:13:23.416Z,21.6
2023-03-10T22:18:59.447Z,21.5
2023-03-10T22:24:51.938Z,21.5
2023-03-10T22:30:45.112Z,21.5
2023-03-10T22:36:37.170Z,21.5
2023-03-10T22:42:14.314Z,21.4
2023-03-10T22:47:21.378Z,21.4
2023-03-10T22:53:14.147Z,21.4
2023-03-10T22:59:06.916Z,21.4
2023-03-10T23:04:14.634Z,21.4
2023-03-10T23:09:50.880Z,21.4
2023-03-10T23:15:56.730Z,21.3
2023-03-10T23:21:50.005Z,21.3
2023-03-10T23:27:27.381Z,21.3
2023-03-10T23:33:20.271Z,21.3
2023-03-10T23:38:58.126Z,21.3
2023-03-10T23:44:03.864Z,21.3
2023-03-10T23:49:42.241Z,21.3
2023-03-10T23:55:20.282Z,21.3
